DW3623 Longjumeau FR current weather conditions

sailwx.info

Wind from 027 at 0 knots gusting 8

Air temperature 25.0° C
Dewpoint 18.9° C

Last reported at 2019-Jun-27 08:00 UTC.
Time now 2019-Jun-27 08:41 UTC

Location: N 48°42' E 002°16'.
View on Google Maps.

See reports from other nearby stations

  
Tides and Currents Weather Stations Pressure Air Temp Water Temp Dewpoint Dewpoint Depression Visibility Wind Speed Wind Dir Waves Ship Positions
date/time (UTC)wind fromknots sea level pressurealtimeterstation pressurevisibilityair tempwater tempwave heightnotes
2019-Jun-27 08:00 027 0 gusting 8 25.0
2019-Jun-27 07:45 031 1 gusting 8 25.0
2019-Jun-27 07:17 021 1 gusting 9 23.9
2019-Jun-27 07:01 046 1 gusting 8 23.3
2019-Jun-27 06:46 032 1 gusting 8 22.8
2019-Jun-27 06:31 355 0 gusting 10 22.2
2019-Jun-27 06:16 028 2 gusting 8 22.2
2019-Jun-27 06:01 021 0 gusting 11 21.7
2019-Jun-27 05:46 044 0 gusting 6 21.7
2019-Jun-27 05:30 040 0 gusting 6 21.7
2019-Jun-27 05:15 032 1 gusting 5 21.1
2019-Jun-27 05:00 011 0 gusting 5 21.1
2019-Jun-27 04:00 032 0 gusting 5 21.1
2019-Jun-27 03:45 032 21.1
2019-Jun-27 03:30 032 21.1
2019-Jun-27 03:15 015 21.7
2019-Jun-27 03:00 010 21.7
2019-Jun-27 02:45 010 0 gusting 6 21.7
2019-Jun-27 02:30 351 1 gusting 5 22.2
2019-Jun-27 02:15 019 22.2
2019-Jun-27 02:00 009 22.2
2019-Jun-27 01:46 013 22.8
2019-Jun-27 01:31 022 0 gusting 4 22.8
2019-Jun-27 01:17 010 0 gusting 6 22.8
2019-Jun-27 01:02 034 0 gusting 5 23.3
2019-Jun-27 00:46 015 23.3
2019-Jun-27 00:32 040 23.3
2019-Jun-27 00:16 014 1 gusting 5 23.9
2019-Jun-27 00:01 021 0 gusting 9 23.9
2019-Jun-26 23:46 019 0 gusting 4 24.4
2019-Jun-26 23:31 026 24.4
2019-Jun-26 23:16 032 1 gusting 6 24.4
2019-Jun-26 23:01 021 0 gusting 9 25.0
2019-Jun-26 12:01 067 3 gusting 12 33.9
2019-Jun-26 11:31 047 2 gusting 10 33.3
2019-Jun-26 11:16 038 0 gusting 12 33.3
2019-Jun-26 11:00 051 0 gusting 11 32.8
2019-Jun-26 10:45 049 2 gusting 12 32.8
2019-Jun-26 10:30 026 2 gusting 8 32.2
2019-Jun-26 10:15 054 4 gusting 9 31.7
2019-Jun-26 10:00 032 0 gusting 8 31.1
2019-Jun-26 09:45 018 2 gusting 8 30.6
2019-Jun-26 09:33 017 1 gusting 8 30.0
2019-Jun-26 09:17 014 1 gusting 6 29.4
2019-Jun-26 09:02 355 2 gusting 7 28.9
2019-Jun-26 08:46 032 0 gusting 7 28.3
2019-Jun-26 08:31 024 0 gusting 6 28.3
2019-Jun-26 08:16 013 0 gusting 4 27.8
2019-Jun-26 08:01 355 26.7
2019-Jun-26 05:02 005 21.7
2019-Jun-26 04:46 005 21.7
2019-Jun-26 04:31 005 21.7
2019-Jun-26 04:16 005 21.7
2019-Jun-26 04:01 005 21.7
2019-Jun-26 03:48 005 21.7
2019-Jun-26 03:31 005 22.2
2019-Jun-26 03:16 005 22.2
2019-Jun-26 03:01 005 22.2
2019-Jun-26 02:46 005 22.2
2019-Jun-26 02:31 005 22.2
2019-Jun-26 02:16 005 22.8
2019-Jun-26 02:01 005 22.8
2019-Jun-26 01:45 005 22.8
2019-Jun-26 01:31 005 22.8
2019-Jun-26 01:16 005 23.3
2019-Jun-26 01:01 005 23.3
2019-Jun-26 00:46 005 23.3
2019-Jun-26 00:30 005 23.9
2019-Jun-26 00:16 005 23.9
2019-Jun-26 00:00 005 23.9
2019-Jun-25 23:46 005 24.4
2019-Jun-25 23:30 005 24.4
2019-Jun-25 23:15 360 25.0
2019-Jun-25 23:00 360 25.0
2019-Jun-25 22:45 360 25.6
2019-Jun-25 22:30 360 25.6
2019-Jun-25 22:15 005 26.1
2019-Jun-25 22:00 005 26.7
2019-Jun-25 21:45 010 0 gusting 3 26.7
2019-Jun-25 21:30 300 0 gusting 3 26.7
2019-Jun-25 21:17 300 26.7
2019-Jun-25 21:01 300 27.2
2019-Jun-25 20:47 300 27.2
2019-Jun-25 20:32 300 27.2
2019-Jun-25 20:17 300 0 gusting 6 27.2
2019-Jun-25 20:01 299 28.3
2019-Jun-25 19:47 277 29.4
2019-Jun-25 19:31 277 31.1
2019-Jun-25 19:16 277 32.2
2019-Jun-25 19:01 240 32.8
2019-Jun-25 18:46 240 33.3
2019-Jun-25 18:31 240 33.3
2019-Jun-25 18:16 240 33.3
2019-Jun-25 18:01 240 33.3
2019-Jun-25 17:46 240 33.3
2019-Jun-25 17:31 237 33.3
2019-Jun-25 17:15 240 33.9
2019-Jun-25 17:00 240 0 gusting 3 33.9
2019-Jun-25 16:45 238 0 gusting 6 33.9
2019-Jun-25 16:31 251 0 gusting 6 34.4
2019-Jun-25 16:15 251 1 gusting 4 34.4
2019-Jun-25 16:00 253 34.4
2019-Jun-25 15:46 251 34.4
2019-Jun-25 15:30 252 0 gusting 6 33.9
2019-Jun-25 15:16 275 1 gusting 6 33.9
2019-Jun-25 09:00 281 1 gusting 4 26.7
2019-Jun-25 08:45 307 0 gusting 5 26.1
2019-Jun-25 08:30 307 25.6
2019-Jun-25 08:17 308 0 gusting 3 25.6
2019-Jun-25 08:02 310 0 gusting 4 25.0